KATL/ATL METAR and TAF weather

Enter ICAO airport designator
Station Type Date Time Source
KATL METAR 2019/06/17 05:52 UTC NOAA

KATL 170552Z 22004KT 10SM FEW180 SCT250 24/19 A3005 RMK AO2 SLP164 T02440189 10300 20244 50003


Station Type Date Time Source
KATL Decoded METAR 2019/06/17 05:52 UTC NOAA

HARTSFIELD-JACKSON ATLANTA, GA, United States (KATL) 33-39N 84-26W
Jun 17, 2019 - 01:52 AM EDT / 2019.06.17 0552 UTC
Wind: from the SW (220 degrees) at 5 MPH (4 KT):0
Visibility: 10 mile(s):0
Sky conditions: partly cloudy
Temperature: 75.9 F (24.4 C)
Dew Point: 66.0 F (18.9 C)
Relative Humidity: 71%
Pressure (altimeter): 30.05 in. Hg (1017 hPa)
Pressure tendency: 0.01 inches (0.3 hPa) higher than three hours ago
ob: KATL 170552Z 22004KT 10SM FEW180 SCT250 24/19 A3005 RMK AO2 SLP164 T02440189 10300 20244 50003
cycle: 6

Station Type Date Time Source
KATL TAF 2019/06/17 06:22 UTC NOAA

TAF KATL 170520Z 1706/1812 VRB03KT P6SM FEW250
FM171000 24004KT P6SM FEW030
FM171700 21006KT P6SM VCSH SCT050
TEMPO 1718/1722 3SM TSRA BKN040CB
FM180200 19005KT P6SM BKN250

Example: see airport list